ESMQ

Kalmar Airport

Sweden
METAR ESMQ 140120Z AUTO 04009KT 9999 -RA FEW006/// SCT008/// BKN025/// 02/02 Q1029 RESHUP
Observed Flight Rules
Dec-14 @ 01:20 UTC (12 minutes ago) Marginal Visual Flight Rules
Wind Visibility Clouds Conditions
40° at 9 knots 10,000+ meters
  • Few at 600' AGL
  • Scattered at 800' AGL
  • Broken at 2,500' AGL
  • Light Rain
Temperatures Readings
Current 2°C / 36°F
Dewpoint 2°C / 36°F
Humidity 100%
Altimeter 30.38" Hg
Pressure 1029 hPa
Elevation 16
METAR ESMQ 140120Z AUTO 04009KT 9999 -RA FEW006/// SCT008/// BKN025/// 02/02 Q1029 RESHUP
Observed Flight Rules
Dec-14 @ 01:20 UTC
(12 minutes ago)
MVFR
Wind Visibility
40° at 9 knots 10,000+ meters
Clouds
  • Few at 600' AGL
  • Scattered at 800' AGL
  • Broken at 2,500' AGL
Conditions
  • Light Rain
Temperature Dewpoint
2°C / 36°F 2°C / 36°F
Humidity Altimeter Pressure
100% 30.38" Hg 1029 hPa